Time;durP1;ratioP1;P1;durP2;ratioP2;P2;SDS_P1;SDS_P2;PMS_P1;PMS_P2;Temp;Humidity;BMP_temperature;BMP_pressure;BME280_temperature;BME280_humidity;BME280_pressure;Samples;Min_cycle;Max_cycle;Signal;HPM_P1;HPM_P2
2021/05/04 00:00:12;;;;;;;4.80;4.40;;;1.30;99.90;;;;;;2080921;28;20260;-70
2021/05/04 00:01:13;;;;;;;4.75;4.20;;;1.30;99.90;;;;;;2080146;28;20487;-71
2021/05/04 00:02:14;;;;;;;4.50;3.37;;;1.30;99.90;;;;;;2080114;28;20219;-69
2021/05/04 00:03:14;;;;;;;4.37;3.83;;;1.20;99.90;;;;;;2080408;28;20676;-71
2021/05/04 00:04:15;;;;;;;4.83;4.13;;;1.20;99.90;;;;;;2080218;28;20807;-70
2021/05/04 00:05:16;;;;;;;4.50;3.70;;;1.20;99.90;;;;;;2081077;28;20175;-70
2021/05/04 00:06:16;;;;;;;5.80;3.83;;;1.30;99.90;;;;;;2080919;28;20597;-70
2021/05/04 00:07:17;;;;;;;6.67;4.80;;;1.30;99.90;;;;;;2080415;28;20188;-71
2021/05/04 00:08:18;;;;;;;6.05;4.35;;;1.30;99.90;;;;;;2080514;28;20644;-70
2021/05/04 00:09:19;;;;;;;5.57;3.90;;;1.30;99.90;;;;;;2085627;28;20201;-69
2021/05/04 00:10:20;;;;;;;4.85;4.10;;;1.20;99.90;;;;;;2086986;28;20235;-69
2021/05/04 00:11:21;;;;;;;5.40;4.30;;;1.20;99.90;;;;;;2087269;28;20218;-69
2021/05/04 00:12:21;;;;;;;5.00;3.60;;;1.20;99.90;;;;;;2087213;28;20216;-69
2021/05/04 00:13:22;;;;;;;4.37;3.77;;;1.30;99.90;;;;;;2086996;28;20189;-70
2021/05/04 00:14:23;;;;;;;5.30;4.00;;;1.20;99.90;;;;;;2081571;28;20181;-70
2021/05/04 00:15:24;;;;;;;4.70;3.83;;;1.30;99.90;;;;;;2081617;28;20562;-69
2021/05/04 00:16:26;;;;;;;5.10;3.83;;;1.30;99.90;;;;;;2081152;28;20184;-70
2021/05/04 00:17:26;;;;;;;5.30;4.30;;;1.30;99.90;;;;;;2080365;28;20177;-70
2021/05/04 00:18:27;;;;;;;4.27;3.80;;;1.40;99.90;;;;;;2080552;28;20181;-70
2021/05/04 00:19:28;;;;;;;5.00;3.70;;;1.40;99.90;;;;;;2080814;28;20551;-69
2021/05/04 00:20:28;;;;;;;4.10;3.70;;;1.40;99.90;;;;;;2080995;28;20180;-70
2021/05/04 00:21:30;;;;;;;4.60;4.03;;;1.40;99.90;;;;;;2080178;28;20188;-70
2021/05/04 00:22:31;;;;;;;4.18;3.78;;;1.50;99.90;;;;;;2072446;28;20722;-71
2021/05/04 00:23:32;;;;;;;4.23;3.80;;;1.60;99.90;;;;;;2071978;28;20193;-69
2021/05/04 00:24:33;;;;;;;6.23;4.13;;;1.70;99.90;;;;;;2080140;28;20208;-70
2021/05/04 00:25:33;;;;;;;5.13;4.40;;;1.70;99.90;;;;;;2080734;28;20234;-71
2021/05/04 00:26:34;;;;;;;4.40;4.00;;;1.80;99.90;;;;;;2080987;28;20596;-69
2021/05/04 00:27:35;;;;;;;4.37;3.93;;;1.90;99.90;;;;;;2080794;28;20177;-70
2021/05/04 00:28:36;;;;;;;4.40;4.00;;;1.90;99.90;;;;;;2080179;28;20248;-69
2021/05/04 00:29:37;;;;;;;4.03;3.63;;;2.00;99.90;;;;;;2071960;28;20892;-70
2021/05/04 00:30:38;;;;;;;3.70;3.23;;;2.00;99.90;;;;;;2072188;28;20297;-71
2021/05/04 00:31:38;;;;;;;5.40;4.10;;;2.30;99.90;;;;;;2079901;28;20703;-69
2021/05/04 00:32:39;;;;;;;3.40;3.10;;;2.60;99.90;;;;;;2080096;28;20180;-70
2021/05/04 00:33:40;;;;;;;5.53;3.37;;;2.70;99.90;;;;;;2080703;28;20181;-70
2021/05/04 00:34:41;;;;;;;4.18;3.22;;;2.80;99.90;;;;;;2080086;28;20181;-71
2021/05/04 00:35:42;;;;;;;4.43;3.00;;;2.90;99.90;;;;;;2071752;28;20197;-69
2021/05/04 00:36:42;;;;;;;3.53;3.00;;;3.00;99.90;;;;;;2080175;28;20260;-69
2021/05/04 00:37:43;;;;;;;6.20;3.50;;;3.00;99.90;;;;;;2080701;28;20184;-71
2021/05/04 00:38:44;;;;;;;4.30;3.60;;;3.00;99.90;;;;;;2080188;28;20181;-69
2021/05/04 00:39:44;;;;;;;4.37;3.27;;;3.10;99.90;;;;;;2079817;28;20594;-70
2021/05/04 00:40:45;;;;;;;5.70;3.83;;;3.10;99.90;;;;;;2080822;28;20185;-70
2021/05/04 00:41:46;;;;;;;3.43;3.13;;;3.10;99.90;;;;;;2080431;28;20282;-69
2021/05/04 00:42:47;;;;;;;3.60;3.30;;;3.10;99.90;;;;;;2080884;28;20264;-69
2021/05/04 00:43:49;;;;;;;3.75;3.35;;;3.10;99.90;;;;;;2080633;28;20247;-69
2021/05/04 00:44:50;;;;;;;4.55;3.13;;;3.20;99.90;;;;;;2079976;28;20734;-70
2021/05/04 00:45:50;;;;;;;4.57;3.47;;;3.20;99.90;;;;;;2073241;28;20911;-70
2021/05/04 00:46:51;;;;;;;4.87;3.17;;;3.30;99.90;;;;;;2081678;28;20185;-70
2021/05/04 00:47:52;;;;;;;5.37;3.10;;;3.20;99.90;;;;;;2082158;28;20181;-68
2021/05/04 00:48:53;;;;;;;3.90;3.03;;;3.20;99.90;;;;;;2082369;28;20550;-69
2021/05/04 00:49:53;;;;;;;3.30;2.60;;;3.30;99.90;;;;;;2082087;28;20197;-70
2021/05/04 00:50:54;;;;;;;3.70;3.23;;;3.30;99.90;;;;;;2082049;28;20173;-71
2021/05/04 00:51:55;;;;;;;5.53;3.33;;;3.30;99.90;;;;;;2081262;28;20180;-69
2021/05/04 00:52:56;;;;;;;3.60;3.30;;;3.30;99.90;;;;;;2081537;28;20677;-69
2021/05/04 00:53:57;;;;;;;2.90;2.60;;;3.40;99.90;;;;;;2082242;28;20181;-69
2021/05/04 00:54:58;;;;;;;3.20;2.90;;;3.40;99.90;;;;;;2082077;28;20179;-71
2021/05/04 00:56:00;;;;;;;3.37;2.83;;;3.50;99.90;;;;;;2081548;28;20181;-71
2021/05/04 00:57:01;;;;;;;5.05;3.67;;;3.50;99.90;;;;;;2081527;28;20435;-71
2021/05/04 00:58:02;;;;;;;4.90;3.37;;;3.50;99.90;;;;;;2089673;28;20214;-70
2021/05/04 00:59:06;;;;;;;4.75;3.05;;;3.60;99.90;;;;;;2081879;28;20777;-70
2021/05/04 01:00:07;;;;;;;3.80;2.40;;;3.70;99.90;;;;;;2082153;28;20392;-70
2021/05/04 01:01:08;;;;;;;2.63;2.42;;;3.90;99.90;;;;;;2081227;28;20177;-70
2021/05/04 01:02:09;;;;;;;2.90;2.70;;;4.00;99.90;;;;;;2081483;28;20524;-69
2021/05/04 01:03:11;;;;;;;2.93;2.63;;;4.00;99.90;;;;;;2081266;28;20205;-69
2021/05/04 01:04:12;;;;;;;3.65;2.60;;;4.00;99.90;;;;;;2075591;28;20173;-70
2021/05/04 01:05:13;;;;;;;3.10;2.78;;;4.00;99.90;;;;;;2073326;28;20179;-69
2021/05/04 01:06:14;;;;;;;2.75;2.55;;;4.00;99.90;;;;;;2081204;28;20273;-70
2021/05/04 01:07:15;;;;;;;2.60;2.40;;;4.00;99.90;;;;;;2082006;28;20187;-70
2021/05/04 01:08:15;;;;;;;4.80;2.60;;;4.20;99.90;;;;;;2081438;28;20642;-70
2021/05/04 01:09:17;;;;;;;3.67;2.50;;;4.60;99.90;;;;;;2073111;28;20190;-69
2021/05/04 01:10:18;;;;;;;2.92;2.30;;;4.70;99.90;;;;;;2081340;28;20241;-70
2021/05/04 01:11:18;;;;;;;2.47;2.20;;;4.70;99.90;;;;;;2089324;28;20214;-70
2021/05/04 01:12:20;;;;;;;4.10;2.33;;;4.90;99.90;;;;;;2082026;28;20180;-70
2021/05/04 01:13:21;;;;;;;3.35;2.40;;;5.00;99.90;;;;;;2081374;28;20184;-70
2021/05/04 01:14:23;;;;;;;2.87;2.50;;;5.00;99.90;;;;;;2073050;28;20617;-70
2021/05/04 01:15:23;;;;;;;3.25;2.42;;;5.20;99.90;;;;;;2081227;28;20176;-70
2021/05/04 01:16:24;;;;;;;2.47;2.27;;;5.30;99.90;;;;;;2081256;28;20179;-71
2021/05/04 01:17:25;;;;;;;3.33;2.70;;;5.40;99.90;;;;;;2089268;28;20422;-71
2021/05/04 01:18:26;;;;;;;2.50;2.07;;;5.50;99.90;;;;;;2081838;28;20242;-70
2021/05/04 01:19:26;;;;;;;2.83;2.40;;;5.50;99.90;;;;;;2081905;28;20257;-70
2021/05/04 01:20:28;;;;;;;3.40;2.10;;;5.50;99.90;;;;;;2081373;28;20195;-70
2021/05/04 01:21:28;;;;;;;2.83;2.30;;;5.50;99.90;;;;;;2072869;28;20695;-70
2021/05/04 01:22:29;;;;;;;3.40;2.37;;;5.60;99.90;;;;;;2081239;28;20266;-70
2021/05/04 01:23:30;;;;;;;5.37;2.50;;;5.50;99.90;;;;;;2081091;28;20690;-70
2021/05/04 01:24:30;;;;;;;2.67;2.23;;;5.50;99.90;;;;;;2081314;28;20254;-71
2021/05/04 01:25:31;;;;;;;2.70;2.10;;;5.60;99.90;;;;;;2081804;28;20644;-71
2021/05/04 01:26:33;;;;;;;2.03;1.87;;;5.60;99.90;;;;;;2081897;28;20176;-70
2021/05/04 01:27:34;;;;;;;3.20;2.42;;;5.60;99.90;;;;;;2081858;28;20210;-70
2021/05/04 01:28:34;;;;;;;3.03;2.10;;;5.60;99.90;;;;;;2081683;28;20190;-71
2021/05/04 01:29:35;;;;;;;2.87;2.10;;;5.70;99.90;;;;;;2081790;28;20663;-70
2021/05/04 01:30:36;;;;;;;2.37;2.10;;;5.60;99.90;;;;;;2082155;28;20188;-70
2021/05/04 01:31:39;;;;;;;2.35;2.15;;;5.50;99.90;;;;;;2081764;28;20180;-70
2021/05/04 01:32:39;;;;;;;2.30;2.10;;;5.40;99.90;;;;;;2082045;28;20262;-70
2021/05/04 01:33:40;;;;;;;2.33;2.13;;;5.40;99.90;;;;;;2081866;28;20176;-69
2021/05/04 01:34:41;;;;;;;3.60;2.23;;;5.30;99.90;;;;;;2081770;28;20190;-70
2021/05/04 01:35:41;;;;;;;2.10;1.90;;;5.30;99.90;;;;;;2081726;28;20199;-71
2021/05/04 01:36:42;;;;;;;2.50;2.30;;;5.30;99.90;;;;;;2081928;28;20184;-69
2021/05/04 01:37:43;;;;;;;2.30;2.10;;;5.30;99.90;;;;;;2081858;28;20596;-70
2021/05/04 01:38:44;;;;;;;2.03;1.83;;;5.30;99.90;;;;;;2081247;28;20215;-70
2021/05/04 01:39:49;;;;;;;2.50;2.30;;;5.30;99.90;;;;;;2081323;28;20208;-69
2021/05/04 01:40:50;;;;;;;3.15;2.15;;;5.30;99.90;;;;;;2082083;28;20184;-70
2021/05/04 01:41:51;;;;;;;2.67;2.20;;;5.30;99.90;;;;;;2081713;28;20209;-69
2021/05/04 01:42:51;;;;;;;3.97;2.10;;;5.30;99.90;;;;;;2082099;28;20188;-70
2021/05/04 01:43:52;;;;;;;2.37;2.17;;;5.10;99.90;;;;;;2081925;28;20560;-70
2021/05/04 01:44:53;;;;;;;2.23;2.03;;;5.10;99.90;;;;;;2081790;28;20211;-70
2021/05/04 01:45:53;;;;;;;2.20;2.00;;;5.10;99.90;;;;;;2082087;28;20176;-70
2021/05/04 01:46:54;;;;;;;2.53;2.10;;;5.20;99.90;;;;;;2081944;28;20180;-70
2021/05/04 01:47:55;;;;;;;2.10;1.90;;;5.30;99.90;;;;;;2081439;28;20172;-69
2021/05/04 01:48:55;;;;;;;2.30;2.10;;;5.40;99.60;;;;;;2081466;28;20180;-70
2021/05/04 01:49:56;;;;;;;2.30;1.97;;;5.60;99.60;;;;;;2081061;28;20199;-70
2021/05/04 01:50:57;;;;;;;3.43;2.13;;;5.80;98.00;;;;;;2082083;28;20698;-69
2021/05/04 01:51:58;;;;;;;2.43;1.90;;;5.90;97.90;;;;;;2081743;28;20180;-70
2021/05/04 01:52:58;;;;;;;3.22;2.30;;;6.00;97.20;;;;;;2081160;28;20172;-71
2021/05/04 01:54:00;;;;;;;2.93;2.10;;;6.10;96.50;;;;;;2081595;28;20263;-70
2021/05/04 01:55:03;;;;;;;2.40;2.13;;;6.10;96.30;;;;;;2081072;28;20262;-70
2021/05/04 01:56:04;;;;;;;2.28;1.98;;;6.10;95.90;;;;;;2081213;28;20613;-71
2021/05/04 01:57:06;;;;;;;2.53;1.88;;;6.20;96.60;;;;;;2080850;28;20275;-70
2021/05/04 01:58:07;;;;;;;3.28;2.10;;;6.20;94.60;;;;;;2081862;28;20219;-71
2021/05/04 01:59:08;;;;;;;2.73;2.00;;;6.30;94.60;;;;;;2082147;28;20189;-70
2021/05/04 02:00:10;;;;;;;2.43;2.23;;;6.40;94.80;;;;;;2082446;28;20184;-69
2021/05/04 02:01:10;;;;;;;2.08;1.88;;;6.40;94.70;;;;;;2081746;28;20196;-69
2021/05/04 02:02:11;;;;;;;3.90;2.17;;;6.40;94.40;;;;;;2082270;28;20192;-70
2021/05/04 02:03:12;;;;;;;2.80;2.10;;;6.40;94.50;;;;;;2081967;28;20180;-70
2021/05/04 02:04:13;;;;;;;2.43;1.80;;;6.40;95.30;;;;;;2082023;28;20201;-69
2021/05/04 02:05:14;;;;;;;2.25;1.98;;;6.40;95.50;;;;;;2081356;28;20234;-70
2021/05/04 02:06:15;;;;;;;2.20;2.00;;;6.20;96.40;;;;;;2081023;28;20671;-69
2021/05/04 02:07:16;;;;;;;3.10;2.00;;;6.10;96.70;;;;;;2081491;28;20180;-71
2021/05/04 02:08:16;;;;;;;1.77;1.67;;;6.00;97.20;;;;;;2081066;28;20189;-70
2021/05/04 02:09:17;;;;;;;2.30;2.10;;;5.90;97.80;;;;;;2080971;28;20185;-69
2021/05/04 02:10:18;;;;;;;2.20;2.00;;;5.90;98.30;;;;;;2081578;28;20197;-70
2021/05/04 02:11:19;;;;;;;2.10;1.90;;;5.80;98.30;;;;;;2080506;28;20188;-70
2021/05/04 02:12:20;;;;;;;2.07;1.87;;;5.80;98.30;;;;;;2081049;28;20180;-70
2021/05/04 02:13:23;;;;;;;3.10;1.97;;;5.80;99.10;;;;;;2072911;28;20193;-70
2021/05/04 02:14:24;;;;;;;2.67;1.80;;;5.70;99.70;;;;;;2081074;28;20181;-69
2021/05/04 02:15:25;;;;;;;2.80;2.00;;;5.50;99.20;;;;;;2081012;28;20219;-69
2021/05/04 02:16:27;;;;;;;2.17;1.90;;;5.60;98.50;;;;;;2080895;28;20283;-70
2021/05/04 02:17:28;;;;;;;2.72;1.90;;;5.70;98.30;;;;;;2079134;28;20618;-71
2021/05/04 02:18:28;;;;;;;3.27;2.07;;;5.70;98.00;;;;;;2080900;28;20199;-71
2021/05/04 02:19:29;;;;;;;2.27;1.97;;;5.70;98.00;;;;;;2081438;28;20215;-70
2021/05/04 02:20:30;;;;;;;2.50;2.00;;;5.80;98.00;;;;;;2081584;28;20635;-69
2021/05/04 02:21:31;;;;;;;2.07;1.87;;;5.80;97.30;;;;;;2081278;28;20192;-69
2021/05/04 02:22:33;;;;;;;2.00;1.80;;;5.80;97.50;;;;;;2080759;28;20642;-69
2021/05/04 02:23:35;;;;;;;2.83;2.15;;;5.90;97.20;;;;;;2072954;28;20181;-71
2021/05/04 02:24:35;;;;;;;3.10;2.15;;;5.90;97.50;;;;;;2073089;28;20896;-68
2021/05/04 02:25:36;;;;;;;2.13;1.87;;;5.90;97.10;;;;;;2072846;28;20181;-69
2021/05/04 02:26:38;;;;;;;1.80;1.60;;;5.90;96.90;;;;;;2080966;28;20659;-69
2021/05/04 02:27:38;;;;;;;2.45;2.00;;;6.00;96.30;;;;;;2081356;28;20184;-70
2021/05/04 02:28:39;;;;;;;1.97;1.77;;;6.10;96.00;;;;;;2081475;28;20180;-69
2021/05/04 02:29:40;;;;;;;2.50;2.17;;;6.20;94.20;;;;;;2081230;28;20193;-70
2021/05/04 02:30:40;;;;;;;2.30;1.93;;;6.40;93.70;;;;;;2081583;28;20180;-70
2021/05/04 02:31:41;;;;;;;2.30;1.73;;;6.50;93.50;;;;;;2081232;28;20830;-70
2021/05/04 02:32:42;;;;;;;2.10;1.90;;;6.50;94.30;;;;;;2081470;28;20184;-70
2021/05/04 02:33:44;;;;;;;2.60;2.00;;;6.50;94.10;;;;;;2072476;28;20214;-70
2021/05/04 02:34:44;;;;;;;3.30;1.75;;;6.50;94.20;;;;;;2072962;28;20181;-71
2021/05/04 02:35:45;;;;;;;2.17;1.97;;;6.40;94.60;;;;;;2080809;28;20225;-71
2021/05/04 02:36:46;;;;;;;3.17;2.07;;;6.40;94.10;;;;;;2080979;28;20287;-69
2021/05/04 02:37:47;;;;;;;2.33;2.03;;;6.50;94.00;;;;;;2081406;28;20200;-72
2021/05/04 02:38:47;;;;;;;2.30;1.90;;;6.50;94.30;;;;;;2081518;28;20279;-70
2021/05/04 02:39:48;;;;;;;2.33;2.03;;;6.50;93.60;;;;;;2081354;28;20228;-68
2021/05/04 02:40:49;;;;;;;2.20;2.00;;;6.60;92.80;;;;;;2081457;28;20550;-70
2021/05/04 02:41:49;;;;;;;1.90;1.80;;;6.70;92.20;;;;;;2081206;28;20243;-70
2021/05/04 02:42:50;;;;;;;4.57;2.37;;;6.70;92.90;;;;;;2081391;28;20192;-70
2021/05/04 02:43:51;;;;;;;3.23;1.97;;;6.80;91.60;;;;;;2081258;28;20208;-70
2021/05/04 02:44:51;;;;;;;2.03;1.83;;;6.90;92.00;;;;;;2081257;28;20300;-70
2021/05/04 02:45:53;;;;;;;2.00;1.80;;;7.00;91.20;;;;;;2081374;28;20181;-70
2021/05/04 02:46:53;;;;;;;2.58;2.10;;;7.00;90.90;;;;;;2081315;28;20192;-70
2021/05/04 02:47:54;;;;;;;2.60;2.00;;;7.10;90.80;;;;;;2080800;28;20219;-69
2021/05/04 02:48:56;;;;;;;2.00;1.80;;;7.20;89.60;;;;;;2080577;28;20174;-69
2021/05/04 02:49:57;;;;;;;2.53;1.70;;;7.30;88.50;;;;;;2080708;28;20683;-70
2021/05/04 02:50:57;;;;;;;3.47;2.07;;;7.30;88.90;;;;;;2080557;28;20177;-70
2021/05/04 02:51:58;;;;;;;2.53;1.70;;;7.40;87.70;;;;;;2081509;28;20180;-70
2021/05/04 02:52:59;;;;;;;2.20;2.00;;;7.50;87.50;;;;;;2081336;28;20749;-71
2021/05/04 02:54:00;;;;;;;2.20;2.00;;;7.50;87.90;;;;;;2081269;28;20303;-71
2021/05/04 02:55:01;;;;;;;2.13;1.80;;;7.50;86.50;;;;;;2081154;28;20178;-70
2021/05/04 02:56:03;;;;;;;2.37;1.90;;;7.60;84.90;;;;;;2081040;28;20177;-70
2021/05/04 02:57:04;;;;;;;2.00;1.77;;;7.60;85.70;;;;;;2076671;28;20181;-70
2021/05/04 02:58:05;;;;;;;3.38;2.00;;;7.50;85.70;;;;;;2088874;28;20178;-69
2021/05/04 02:59:06;;;;;;;2.65;2.00;;;7.50;87.90;;;;;;2080365;28;20211;-71
2021/05/04 03:00:08;;;;;;;2.30;2.10;;;7.50;85.90;;;;;;2088951;28;20222;-70
2021/05/04 03:01:09;;;;;;;2.28;1.95;;;7.60;86.00;;;;;;2089306;28;20285;-69
2021/05/04 03:02:10;;;;;;;2.70;1.93;;;7.60;85.80;;;;;;2089454;28;20239;-70
2021/05/04 03:03:12;;;;;;;2.30;2.10;;;7.60;88.40;;;;;;2089343;28;20187;-71
2021/05/04 03:04:12;;;;;;;2.92;1.85;;;7.50;88.80;;;;;;2089525;28;20187;-71
2021/05/04 03:05:13;;;;;;;2.30;2.10;;;7.50;87.70;;;;;;2089750;28;20199;-69
2021/05/04 03:06:14;;;;;;;2.43;2.23;;;7.50;89.60;;;;;;2089345;28;20195;-70
2021/05/04 03:07:14;;;;;;;1.93;1.80;;;7.40;90.00;;;;;;2089419;28;20176;-71
2021/05/04 03:08:15;;;;;;;2.70;1.70;;;7.40;90.20;;;;;;2094128;28;20243;-70
2021/05/04 03:09:16;;;;;;;2.03;1.83;;;7.40;90.50;;;;;;2095104;28;20179;-68
2021/05/04 03:10:17;;;;;;;3.23;2.10;;;7.40;89.80;;;;;;2095599;28;20195;-70
2021/05/04 03:11:18;;;;;;;2.50;2.30;;;7.40;90.10;;;;;;2094782;28;20218;-69
2021/05/04 03:12:18;;;;;;;2.47;2.10;;;7.40;90.40;;;;;;2094365;28;20598;-70
2021/05/04 03:13:27;;;;;;;2.83;2.53;;;7.50;90.00;;;;;;2089245;28;20250;-69
2021/05/04 03:14:28;;;;;;;2.83;2.25;;;7.40;89.80;;;;;;2089301;28;20181;-70
2021/05/04 03:15:29;;;;;;;2.27;1.90;;;7.50;90.50;;;;;;2088962;28;20223;-70
2021/05/04 03:16:29;;;;;;;3.00;2.20;;;7.40;90.60;;;;;;2089785;28;20187;-69
2021/05/04 03:17:30;;;;;;;2.80;2.30;;;7.50;89.80;;;;;;2089659;28;20556;-70
2021/05/04 03:18:31;;;;;;;2.77;2.00;;;7.50;90.40;;;;;;2089828;28;20176;-69
2021/05/04 03:19:32;;;;;;;2.47;2.20;;;7.50;89.90;;;;;;2089334;28;20321;-70
2021/05/04 03:20:32;;;;;;;3.27;2.30;;;7.50;89.90;;;;;;2089526;28;20183;-69
2021/05/04 03:21:33;;;;;;;2.30;2.10;;;7.60;88.40;;;;;;2089183;28;20225;-69
2021/05/04 03:22:34;;;;;;;2.47;2.13;;;7.60;87.20;;;;;;2089656;28;20180;-71
2021/05/04 03:23:34;;;;;;;2.60;2.20;;;7.70;86.80;;;;;;2089533;28;20184;-70
2021/05/04 03:24:35;;;;;;;3.87;2.30;;;7.70;87.40;;;;;;2089373;28;20207;-69
2021/05/04 03:25:36;;;;;;;2.90;2.37;;;7.80;86.10;;;;;;2089395;28;20628;-70
2021/05/04 03:26:37;;;;;;;3.50;2.40;;;7.80;85.20;;;;;;2088970;28;20181;-70
2021/05/04 03:27:37;;;;;;;2.97;2.40;;;7.90;85.10;;;;;;2088628;28;20259;-68
2021/05/04 03:28:38;;;;;;;2.73;2.30;;;7.80;85.80;;;;;;2089508;28;20203;-70
2021/05/04 03:29:39;;;;;;;2.53;2.30;;;7.80;85.20;;;;;;2089295;28;20860;-70
2021/05/04 03:30:39;;;;;;;3.30;2.23;;;7.80;85.30;;;;;;2088887;28;20547;-69
2021/05/04 03:31:40;;;;;;;2.50;2.30;;;7.80;86.10;;;;;;2088693;28;20178;-71
2021/05/04 03:32:42;;;;;;;2.70;2.40;;;7.80;85.70;;;;;;2089303;28;20682;-70
2021/05/04 03:33:43;;;;;;;2.63;2.22;;;7.80;86.40;;;;;;2089357;28;20707;-70
2021/05/04 03:34:44;;;;;;;2.50;2.30;;;7.80;86.00;;;;;;2089430;28;20259;-70
2021/05/04 03:35:44;;;;;;;2.40;2.20;;;7.80;86.20;;;;;;2088828;28;20176;-70
2021/05/04 03:36:45;;;;;;;2.67;2.33;;;7.80;86.50;;;;;;2088728;28;20557;-71
2021/05/04 03:37:47;;;;;;;3.30;2.23;;;7.80;86.70;;;;;;2089127;28;20184;-69
2021/05/04 03:38:47;;;;;;;2.55;2.20;;;7.80;87.00;;;;;;2089049;28;20323;-69
2021/05/04 03:39:48;;;;;;;2.87;2.10;;;7.80;86.10;;;;;;2089246;28;20245;-70
2021/05/04 03:40:49;;;;;;;2.60;2.40;;;7.90;86.40;;;;;;2088602;28;20206;-71
2021/05/04 03:41:50;;;;;;;2.80;2.50;;;7.90;86.20;;;;;;2088441;28;20322;-69
2021/05/04 03:42:50;;;;;;;3.77;2.63;;;7.90;86.50;;;;;;2088998;28;20522;-69
2021/05/04 03:43:51;;;;;;;34.87;19.10;;;7.90;87.30;;;;;;2088492;28;20187;-70
2021/05/04 03:44:52;;;;;;;2.97;2.33;;;7.90;87.50;;;;;;2080431;28;20714;-70
2021/05/04 03:45:52;;;;;;;3.23;2.40;;;7.90;87.00;;;;;;2088583;28;20172;-69
2021/05/04 03:46:53;;;;;;;3.00;2.47;;;7.90;86.10;;;;;;2089129;28;20176;-70
2021/05/04 03:47:55;;;;;;;4.17;2.80;;;7.90;86.60;;;;;;2089170;28;20174;-70
2021/05/04 03:48:55;;;;;;;4.50;3.00;;;7.80;88.20;;;;;;2089038;28;20278;-70
2021/05/04 03:49:56;;;;;;;3.00;2.60;;;7.80;88.20;;;;;;2089005;28;20712;-70
2021/05/04 03:50:57;;;;;;;2.73;2.53;;;7.80;89.10;;;;;;2089156;28;20535;-70
2021/05/04 03:51:58;;;;;;;2.70;2.37;;;7.80;87.70;;;;;;2089024;28;20222;-70
2021/05/04 03:53:00;;;;;;;3.22;2.40;;;7.90;88.80;;;;;;2089145;28;20208;-70
2021/05/04 03:54:01;;;;;;;4.70;2.33;;;7.90;86.90;;;;;;2088418;28;20180;-70
2021/05/04 03:55:03;;;;;;;2.77;2.53;;;8.00;87.50;;;;;;2088624;28;20686;-71
2021/05/04 03:56:05;;;;;;;2.90;2.50;;;8.10;83.90;;;;;;2088716;28;20188;-70
2021/05/04 03:57:05;;;;;;;2.97;2.40;;;8.20;84.00;;;;;;2088398;28;20252;-69
2021/05/04 03:58:06;;;;;;;3.20;2.67;;;8.30;84.20;;;;;;2089189;28;20643;-69
2021/05/04 03:59:07;;;;;;;3.90;2.33;;;8.30;84.30;;;;;;2088170;28;20178;-70
2021/05/04 04:00:10;;;;;;;3.10;2.60;;;8.30;84.00;;;;;;2088467;28;20172;-69
2021/05/04 04:01:11;;;;;;;3.58;2.30;;;8.30;83.30;;;;;;2072157;28;20185;-71
2021/05/04 04:02:11;;;;;;;2.60;2.33;;;8.40;83.00;;;;;;2080161;28;20649;-69
2021/05/04 04:03:12;;;;;;;3.87;2.70;;;8.40;82.50;;;;;;2089073;28;20182;-70
2021/05/04 04:04:13;;;;;;;4.20;2.43;;;8.50;83.50;;;;;;2089168;28;20189;-70
2021/05/04 04:05:14;;;;;;;3.15;2.70;;;8.50;79.20;;;;;;2079831;28;20244;-70
2021/05/04 04:06:16;;;;;;;3.17;2.42;;;8.60;78.80;;;;;;2072480;28;20237;-70
2021/05/04 04:07:16;;;;;;;2.92;2.67;;;8.60;79.60;;;;;;2080246;28;20208;-69
2021/05/04 04:08:17;;;;;;;2.90;2.50;;;8.60;80.90;;;;;;2088441;28;20598;-71
2021/05/04 04:09:18;;;;;;;3.53;2.50;;;8.60;78.80;;;;;;2088975;28;20203;-70
2021/05/04 04:10:18;;;;;;;3.30;2.53;;;8.70;78.20;;;;;;2088926;28;20636;-70
2021/05/04 04:11:19;;;;;;;3.80;2.40;;;8.70;79.70;;;;;;2088854;28;20241;-69
2021/05/04 04:12:20;;;;;;;2.53;2.33;;;8.70;77.20;;;;;;2088815;28;20185;-69
2021/05/04 04:13:21;;;;;;;2.80;2.43;;;8.70;76.50;;;;;;2088791;28;20182;-69
2021/05/04 04:14:21;;;;;;;2.70;2.50;;;8.70;77.10;;;;;;2089048;28;20207;-70
2021/05/04 04:15:22;;;;;;;3.03;2.70;;;8.80;76.30;;;;;;2088780;28;20170;-70
2021/05/04 04:16:23;;;;;;;4.00;3.00;;;8.80;76.70;;;;;;2088845;28;20190;-69
2021/05/04 04:17:23;;;;;;;3.73;2.80;;;8.80;78.10;;;;;;2090478;28;20175;-70
2021/05/04 04:18:24;;;;;;;3.03;2.67;;;8.80;78.40;;;;;;2091141;28;20174;-71
2021/05/04 04:19:25;;;;;;;4.33;2.63;;;8.80;77.20;;;;;;2091320;28;20242;-69
2021/05/04 04:20:26;;;;;;;4.40;2.87;;;8.90;75.10;;;;;;2092489;28;20217;-69
2021/05/04 04:21:26;;;;;;;2.63;2.20;;;8.90;75.30;;;;;;2092574;28;20242;-70
2021/05/04 04:22:27;;;;;;;3.33;2.47;;;8.90;75.00;;;;;;2092784;28;20596;-69
2021/05/04 04:23:28;;;;;;;3.37;2.80;;;8.90;76.40;;;;;;2090984;28;20248;-69
2021/05/04 04:24:28;;;;;;;2.60;2.40;;;8.80;77.20;;;;;;2089419;28;20172;-70
2021/05/04 04:25:29;;;;;;;3.27;2.60;;;8.90;76.10;;;;;;2090259;28;20238;-70
2021/05/04 04:26:30;;;;;;;3.10;2.60;;;8.90;75.70;;;;;;2090018;28;20170;-70
2021/05/04 04:27:31;;;;;;;3.00;2.60;;;8.90;76.10;;;;;;2090225;28;20281;-70
2021/05/04 04:28:32;;;;;;;3.73;2.70;;;8.90;75.90;;;;;;2089419;28;20180;-71
2021/05/04 04:29:33;;;;;;;3.53;2.72;;;8.90;76.20;;;;;;2081335;28;20280;-70
2021/05/04 04:30:33;;;;;;;2.97;2.67;;;8.90;76.20;;;;;;2089572;28;20179;-70
2021/05/04 04:31:34;;;;;;;3.43;2.60;;;8.90;76.80;;;;;;2097481;28;20188;-70
2021/05/04 04:32:35;;;;;;;4.05;2.90;;;8.90;74.20;;;;;;2090134;28;20720;-69
2021/05/04 04:33:36;;;;;;;4.30;2.90;;;9.00;75.50;;;;;;2090228;28;20185;-69
2021/05/04 04:34:36;;;;;;;3.37;3.00;;;9.00;73.60;;;;;;2090029;28;20272;-70
2021/05/04 04:35:37;;;;;;;3.43;2.87;;;9.00;73.30;;;;;;2090222;28;20238;-69
2021/05/04 04:36:38;;;;;;;3.50;2.93;;;9.00;74.10;;;;;;2090050;28;20274;-69
2021/05/04 04:37:39;;;;;;;3.93;2.90;;;9.00;75.10;;;;;;2090067;28;20183;-70
2021/05/04 04:38:40;;;;;;;4.15;2.90;;;9.00;74.40;;;;;;2090016;28;20214;-70
2021/05/04 04:39:40;;;;;;;4.63;3.03;;;9.00;73.70;;;;;;2089303;28;20656;-70
2021/05/04 04:40:43;;;;;;;3.47;2.90;;;9.00;73.60;;;;;;2089381;28;20179;-70
2021/05/04 04:41:43;;;;;;;4.35;3.28;;;9.00;73.60;;;;;;2089317;28;20267;-70
2021/05/04 04:42:44;;;;;;;4.33;3.50;;;9.00;73.00;;;;;;2089318;28;20186;-70
2021/05/04 04:43:46;;;;;;;3.70;3.30;;;9.00;74.20;;;;;;2090214;28;20182;-70
2021/05/04 04:44:47;;;;;;;5.32;3.08;;;9.00;73.90;;;;;;2089906;28;20551;-71
2021/05/04 04:45:48;;;;;;;3.57;2.80;;;9.10;71.80;;;;;;2090160;28;20190;-70
2021/05/04 04:46:48;;;;;;;4.30;3.20;;;9.10;72.30;;;;;;2089945;28;20177;-69
2021/05/04 04:47:49;;;;;;;5.70;2.93;;;9.10;72.20;;;;;;2089957;28;20266;-70
2021/05/04 04:48:50;;;;;;;4.70;3.20;;;9.20;71.40;;;;;;2090115;28;20277;-69
2021/05/04 04:49:50;;;;;;;4.27;3.17;;;9.20;71.20;;;;;;2090020;28;20209;-69
2021/05/04 04:50:51;;;;;;;4.20;3.13;;;9.20;71.30;;;;;;2089325;28;20187;-70
2021/05/04 04:51:52;;;;;;;4.37;3.37;;;9.20;71.20;;;;;;2089062;28;20192;-69
2021/05/04 04:52:54;;;;;;;4.43;3.23;;;9.20;71.60;;;;;;2089680;28;20635;-70
2021/05/04 04:53:54;;;;;;;5.13;3.10;;;9.20;70.40;;;;;;2089396;28;20599;-69
2021/05/04 04:54:55;;;;;;;4.97;3.63;;;9.30;71.30;;;;;;2089608;28;20216;-70
2021/05/04 04:55:56;;;;;;;6.63;3.67;;;9.30;70.90;;;;;;2090099;28;20192;-69
2021/05/04 04:56:56;;;;;;;5.97;3.67;;;9.20;70.90;;;;;;2090134;28;20210;-69
2021/05/04 04:57:58;;;;;;;4.47;3.10;;;9.20;71.60;;;;;;2090048;28;20640;-70
2021/05/04 04:58:59;;;;;;;3.50;2.85;;;9.20;72.50;;;;;;2089853;28;20277;-71
2021/05/04 05:00:00;;;;;;;4.53;3.07;;;9.20;71.90;;;;;;2090025;28;20716;-71
2021/05/04 05:01:00;;;;;;;4.27;3.47;;;9.20;70.60;;;;;;2090063;28;20550;-70
2021/05/04 05:02:02;;;;;;;4.50;3.10;;;9.20;71.40;;;;;;2089802;28;20226;-70
2021/05/04 05:03:02;;;;;;;4.30;2.90;;;9.20;69.60;;;;;;2086827;28;20190;-69
2021/05/04 05:04:05;;;;;;;3.37;3.00;;;9.30;71.50;;;;;;2089918;28;20177;-71
2021/05/04 05:05:06;;;;;;;3.70;2.70;;;9.30;70.50;;;;;;2089377;28;20316;-70
2021/05/04 05:06:07;;;;;;;3.72;2.67;;;9.40;69.70;;;;;;2089280;28;20181;-69
2021/05/04 05:07:08;;;;;;;6.27;2.87;;;9.40;69.20;;;;;;2090103;28;20174;-70
2021/05/04 05:08:09;;;;;;;7.13;3.03;;;9.40;69.60;;;;;;2089980;28;20184;-70
2021/05/04 05:09:10;;;;;;;3.13;2.83;;;9.40;69.00;;;;;;2089949;28;20181;-70
2021/05/04 05:10:11;;;;;;;4.27;3.17;;;9.40;67.90;;;;;;2090077;28;20205;-70
2021/05/04 05:11:12;;;;;;;4.07;2.95;;;9.40;67.70;;;;;;2089292;28;20176;-70
2021/05/04 05:13:24;;;;;;;4.00;2.80;;;9.40;68.70;;;;;;2071238;28;20266;-69
2021/05/04 05:14:25;;;;;;;6.90;3.60;;;9.50;68.60;;;;;;2073741;28;20265;-70
2021/05/04 05:15:26;;;;;;;4.63;3.23;;;9.50;69.20;;;;;;2073737;28;20191;-70
2021/05/04 05:16:27;;;;;;;5.20;3.57;;;9.50;67.50;;;;;;2073661;28;20172;-70
2021/05/04 05:17:28;;;;;;;3.50;2.70;;;9.50;68.00;;;;;;2056956;28;20660;-70
2021/05/04 05:18:29;;;;;;;2.95;2.65;;;9.50;67.50;;;;;;2057067;28;20272;-71
2021/05/04 05:19:30;;;;;;;3.20;2.57;;;9.50;68.50;;;;;;2073047;28;20178;-71
2021/05/04 05:20:34;;;;;;;5.00;2.92;;;9.50;67.00;;;;;;2072882;28;20182;-70
2021/05/04 05:21:36;;;;;;;3.15;2.55;;;9.50;68.10;;;;;;2064320;28;20231;-70
2021/05/04 05:22:37;;;;;;;3.90;2.50;;;9.50;67.00;;;;;;2059393;28;20564;-70